createdAt,value
2023-04-26T00:02:41.640Z,7.19
2023-04-26T00:07:43.748Z,7.29
2023-04-26T00:12:45.652Z,7.22
2023-04-26T00:17:47.596Z,7.38
2023-04-26T00:22:50.787Z,7.39
2023-04-26T00:27:52.737Z,6.81
2023-04-26T00:32:54.740Z,7.11
2023-04-26T00:37:56.666Z,6.85
2023-04-26T00:42:59.048Z,7.01
2023-04-26T00:48:02.567Z,5.75
2023-04-26T00:53:04.713Z,5.58
2023-04-26T00:58:06.463Z,6.36
2023-04-26T01:03:08.492Z,6.84
2023-04-26T01:08:10.741Z,6.92
2023-04-26T01:13:13.630Z,6.52
2023-04-26T01:18:15.456Z,6.74
2023-04-26T01:23:17.234Z,5.70
2023-04-26T01:28:19.025Z,5.92
2023-04-26T01:33:21.194Z,5.85
2023-04-26T01:38:22.927Z,5.50
2023-04-26T01:43:24.643Z,6.63
2023-04-26T01:48:26.429Z,6.88
2023-04-26T01:53:28.278Z,5.88
2023-04-26T01:58:30.411Z,6.13
2023-04-26T02:03:32.288Z,6.54
2023-04-26T02:08:34.339Z,6.61
2023-04-26T02:13:36.093Z,6.68
2023-04-26T02:18:37.896Z,6.56
2023-04-26T02:23:40.773Z,6.47
2023-04-26T02:28:44.423Z,6.24
2023-04-26T02:33:46.426Z,6.47
2023-04-26T02:38:48.266Z,6.49
2023-04-26T02:43:50.055Z,6.31
2023-04-26T02:48:52.264Z,6.41
2023-04-26T02:53:54.346Z,6.32
2023-04-26T02:58:56.607Z,6.25
2023-04-26T03:03:58.433Z,6.24
2023-04-26T03:09:00.354Z,5.87
2023-04-26T03:14:02.528Z,5.81
2023-04-26T03:19:05.557Z,5.79
2023-04-26T03:24:07.806Z,5.47
2023-04-26T03:29:09.594Z,4.81
2023-04-26T03:34:11.991Z,6.07
2023-04-26T03:39:14.032Z,5.39
2023-04-26T03:44:16.202Z,4.49
2023-04-26T03:49:18.173Z,5.74
2023-04-26T03:54:20.073Z,4.94
2023-04-26T03:59:21.907Z,4.91
2023-04-26T04:04:24.105Z,5.73
2023-04-26T04:09:26.562Z,5.75
2023-04-26T04:14:29.104Z,4.78
2023-04-26T04:19:31.617Z,5.59
2023-04-26T04:24:34.461Z,5.79
2023-04-26T04:29:36.458Z,5.97
2023-04-26T04:34:39.419Z,5.67
2023-04-26T04:39:41.649Z,4.59
2023-04-26T04:44:43.716Z,5.60
2023-04-26T04:49:45.856Z,5.76
2023-04-26T04:54:48.482Z,5.57
2023-04-26T04:59:51.245Z,6.00
2023-04-26T05:04:53.919Z,5.75
2023-04-26T05:09:56.466Z,5.78
2023-04-26T05:14:58.452Z,5.57
2023-04-26T05:20:03.859Z,5.80
2023-04-26T05:25:07.992Z,5.73
2023-04-26T05:30:10.257Z,5.43
2023-04-26T05:35:25.330Z,5.36
2023-04-26T05:40:28.268Z,5.83
2023-04-26T05:45:30.665Z,5.81
2023-04-26T05:50:34.021Z,5.68
2023-04-26T05:55:36.962Z,5.68
2023-04-26T06:00:39.451Z,6.14
2023-04-26T06:05:42.375Z,6.20
2023-04-26T06:10:44.439Z,5.60
2023-04-26T06:15:46.455Z,6.49
2023-04-26T06:20:48.837Z,6.30
2023-04-26T06:25:50.833Z,6.60
2023-04-26T06:30:52.843Z,6.15
2023-04-26T06:35:55.039Z,6.10
2023-04-26T06:40:57.004Z,6.42
2023-04-26T06:45:59.015Z,6.48
2023-04-26T06:51:05.767Z,6.36
2023-04-26T06:56:07.719Z,6.44
2023-04-26T07:01:10.119Z,6.85
2023-04-26T07:06:11.922Z,7.23
2023-04-26T07:11:14.009Z,6.40
2023-04-26T07:16:16.059Z,6.61
2023-04-26T07:21:17.949Z,7.35
2023-04-26T07:26:19.846Z,5.80
2023-04-26T07:31:21.832Z,7.33
2023-04-26T07:36:25.049Z,7.60
2023-04-26T07:41:27.156Z,6.53
2023-04-26T07:46:29.010Z,4.74
2023-04-26T07:51:31.706Z,3.70
2023-04-26T07:56:33.605Z,4.93
2023-04-26T08:01:35.530Z,4.21
2023-04-26T08:06:38.881Z,2.97
2023-04-26T08:11:41.975Z,1.87
2023-04-26T08:16:44.405Z,3.54
2023-04-26T08:21:46.295Z,3.92
2023-04-26T08:26:48.215Z,3.55
2023-04-26T08:31:50.068Z,2.56
2023-04-26T08:36:51.927Z,3.58
2023-04-26T08:41:55.421Z,2.76
2023-04-26T08:47:06.699Z,2.64
2023-04-26T08:52:11.594Z,2.93
2023-04-26T08:57:13.667Z,5.30
2023-04-26T09:02:19.131Z,5.36
2023-04-26T09:07:23.677Z,5.57
2023-04-26T09:12:26.338Z,5.15
2023-04-26T09:17:33.515Z,6.40
2023-04-26T09:22:36.826Z,6.80
2023-04-26T09:27:46.306Z,5.96
2023-04-26T09:32:55.928Z,6.48
2023-04-26T09:38:12.188Z,7.19
2023-04-26T09:43:18.233Z,5.80
2023-04-26T09:48:22.783Z,4.28
2023-04-26T09:53:37.908Z,5.35
2023-04-26T09:58:58.311Z,6.53
2023-04-26T10:04:02.240Z,6.86
2023-04-26T10:09:05.598Z,4.65
2023-04-26T10:14:07.678Z,7.84
2023-04-26T10:19:10.464Z,8.41
2023-04-26T10:24:12.498Z,4.61
2023-04-26T10:29:14.374Z,6.82
2023-04-26T10:34:21.113Z,6.97
2023-04-26T10:39:23.412Z,4.44
2023-04-26T10:44:40.088Z,8.42
2023-04-26T10:49:47.034Z,8.29
2023-04-26T10:54:49.997Z,8.14
2023-04-26T11:00:17.164Z,6.24
2023-04-26T11:05:54.616Z,9.10
2023-04-26T11:11:09.966Z,7.73
2023-04-26T11:16:13.742Z,10.38
2023-04-26T11:21:18.875Z,7.66
2023-04-26T11:26:20.767Z,6.75
2023-04-26T11:31:22.744Z,6.90
2023-04-26T11:36:25.044Z,5.80
2023-04-26T11:41:27.267Z,8.86
2023-04-26T11:46:29.368Z,9.47
2023-04-26T11:51:32.311Z,8.07
2023-04-26T11:56:34.256Z,7.66
2023-04-26T12:01:36.307Z,8.44
2023-04-26T12:06:46.824Z,9.51
2023-04-26T12:11:53.418Z,9.98
2023-04-26T12:16:55.507Z,9.60
2023-04-26T12:21:57.549Z,8.11
2023-04-26T12:27:01.637Z,8.19
2023-04-26T12:32:04.558Z,9.56
2023-04-26T12:37:06.626Z,9.98
2023-04-26T12:42:08.565Z,10.44
2023-04-26T12:47:10.535Z,7.98
2023-04-26T12:52:12.476Z,8.27
2023-04-26T12:57:14.661Z,8.72
2023-04-26T13:02:17.579Z,9.82
2023-04-26T13:07:20.191Z,11.29
2023-04-26T13:12:22.130Z,11.20
2023-04-26T13:17:26.533Z,10.66
2023-04-26T13:22:28.485Z,8.41
2023-04-26T13:27:31.758Z,9.38
2023-04-26T13:32:34.125Z,12.12
2023-04-26T13:37:36.252Z,12.61
2023-04-26T13:42:38.803Z,12.58
2023-04-26T13:47:40.860Z,11.57
2023-04-26T13:52:42.718Z,10.76
2023-04-26T13:57:44.570Z,11.00
2023-04-26T14:02:46.658Z,9.98
2023-04-26T14:07:48.613Z,11.25
2023-04-26T14:12:50.636Z,10.04
2023-04-26T14:17:52.484Z,11.47
2023-04-26T14:22:54.306Z,12.95
2023-04-26T14:27:56.279Z,13.39
2023-04-26T14:32:58.109Z,12.89
2023-04-26T14:37:59.896Z,11.10
2023-04-26T14:43:01.747Z,10.78
2023-04-26T14:48:03.859Z,12.61
2023-04-26T14:53:05.804Z,13.11
2023-04-26T14:58:07.985Z,11.53
2023-04-26T15:03:09.940Z,12.26
2023-04-26T15:08:12.246Z,11.97
2023-04-26T15:13:14.131Z,10.63
2023-04-26T15:18:16.077Z,13.33
2023-04-26T15:23:18.211Z,10.13
2023-04-26T15:28:20.472Z,12.37
2023-04-26T15:33:22.385Z,11.23
2023-04-26T15:38:24.330Z,10.83
2023-04-26T15:43:26.748Z,10.15
2023-04-26T15:48:28.609Z,11.32
2023-04-26T15:53:30.560Z,12.90
2023-04-26T15:58:32.621Z,11.11
2023-04-26T16:03:34.605Z,12.05
2023-04-26T16:08:40.298Z,11.57
2023-04-26T16:13:51.951Z,11.87
2023-04-26T16:18:53.941Z,11.75
2023-04-26T16:24:00.201Z,11.60
2023-04-26T16:29:04.397Z,12.32
2023-04-26T16:34:06.869Z,13.91
2023-04-26T16:39:08.751Z,12.41
2023-04-26T16:44:11.206Z,13.84
2023-04-26T16:49:13.143Z,12.16
2023-04-26T16:54:15.116Z,13.11
2023-04-26T16:59:17.085Z,14.22
2023-04-26T17:04:19.167Z,15.48
2023-04-26T17:09:21.400Z,14.79
2023-04-26T17:14:23.360Z,15.51
2023-04-26T17:19:26.000Z,12.34
2023-04-26T17:24:27.873Z,14.43
2023-04-26T17:29:29.767Z,13.73
2023-04-26T17:34:32.352Z,12.79
2023-04-26T17:39:34.352Z,13.38
2023-04-26T17:44:36.339Z,14.46
2023-04-26T17:49:38.213Z,14.74
2023-04-26T17:54:40.084Z,14.55
2023-04-26T17:59:42.436Z,12.68
2023-04-26T18:04:45.378Z,14.00
2023-04-26T18:09:47.725Z,14.50
2023-04-26T18:14:49.564Z,13.42
2023-04-26T18:19:51.549Z,13.04
2023-04-26T18:24:53.425Z,13.38
2023-04-26T18:29:55.308Z,13.75
2023-04-26T18:34:57.250Z,13.59
2023-04-26T18:39:59.216Z,15.47
2023-04-26T18:45:02.108Z,14.98
2023-04-26T18:50:05.765Z,15.00
2023-04-26T18:55:08.050Z,15.43
2023-04-26T19:00:10.779Z,15.01
2023-04-26T19:05:15.405Z,15.58
2023-04-26T19:10:17.299Z,14.62
2023-04-26T19:15:19.143Z,14.89
2023-04-26T19:20:21.034Z,13.78
2023-04-26T19:25:23.413Z,13.90
2023-04-26T19:30:25.207Z,13.73
2023-04-26T19:35:27.009Z,14.38
2023-04-26T19:40:28.947Z,14.82
2023-04-26T19:45:30.889Z,13.86
2023-04-26T19:50:32.736Z,13.69
2023-04-26T19:55:34.526Z,14.20
2023-04-26T20:00:36.548Z,13.66
2023-04-26T20:05:38.361Z,14.01
2023-04-26T20:10:41.732Z,13.14
2023-04-26T20:15:43.807Z,13.58
2023-04-26T20:20:47.761Z,13.22
2023-04-26T20:25:50.958Z,13.17
2023-04-26T20:30:53.229Z,13.65
2023-04-26T20:35:55.020Z,13.20
2023-04-26T20:40:57.293Z,13.84
2023-04-26T20:45:59.211Z,13.25
2023-04-26T20:51:02.023Z,14.09
2023-04-26T20:56:03.878Z,14.29
2023-04-26T21:01:07.316Z,13.85
2023-04-26T21:06:09.400Z,13.36
2023-04-26T21:11:11.259Z,13.61
2023-04-26T21:16:13.111Z,13.41
2023-04-26T21:21:15.007Z,12.68
2023-04-26T21:26:16.826Z,12.99
2023-04-26T21:31:18.957Z,12.91
2023-04-26T21:36:21.002Z,12.68
2023-04-26T21:41:23.642Z,11.71
2023-04-26T21:46:26.322Z,12.30
2023-04-26T21:51:28.258Z,12.64
2023-04-26T21:56:30.058Z,11.81
2023-04-26T22:01:32.047Z,11.60
2023-04-26T22:06:34.276Z,11.76
2023-04-26T22:11:36.531Z,12.50
2023-04-26T22:16:38.368Z,11.98
2023-04-26T22:21:40.158Z,12.18
2023-04-26T22:26:41.970Z,12.16
2023-04-26T22:31:43.817Z,12.02
2023-04-26T22:36:46.244Z,11.42
2023-04-26T22:41:48.008Z,11.80
2023-04-26T22:46:49.925Z,9.80
2023-04-26T22:52:04.318Z,10.13
2023-04-26T22:57:11.502Z,11.02
2023-04-26T23:02:15.405Z,11.25
2023-04-26T23:07:17.305Z,11.21
2023-04-26T23:12:20.207Z,11.17
2023-04-26T23:17:22.531Z,11.24
2023-04-26T23:22:24.365Z,10.66
2023-04-26T23:27:26.205Z,10.02
2023-04-26T23:32:27.972Z,10.28
2023-04-26T23:37:29.911Z,10.80
2023-04-26T23:42:31.681Z,9.87
2023-04-26T23:47:33.580Z,10.83
2023-04-26T23:52:35.558Z,10.97
2023-04-26T23:57:37.297Z,10.00
